Time;durP1;ratioP1;P1;durP2;ratioP2;P2;SDS_P1;SDS_P2;PMS_P1;PMS_P2;Temp;Humidity;BMP_temperature;BMP_pressure;BME280_temperature;BME280_humidity;BME280_pressure;Samples;Min_cycle;Max_cycle;Signal;HPM_P1;HPM_P2
2021/05/08 00:01:37;;;;;;;3.20;2.73;;;8.30;93.20;;;;;;5070689;28;20793;-70
2021/05/08 00:04:04;;;;;;;3.03;2.73;;;8.30;93.20;;;;;;5069738;28;20529;-70
2021/05/08 00:06:30;;;;;;;3.23;3.00;;;8.30;93.20;;;;;;5069902;28;20438;-71
2021/05/08 00:08:56;;;;;;;2.83;2.30;;;8.30;93.20;;;;;;5043703;28;20539;-71
2021/05/08 00:11:22;;;;;;;3.40;3.10;;;8.20;93.20;;;;;;5052503;28;20242;-71
2021/05/08 00:13:47;;;;;;;4.43;3.57;;;8.20;93.20;;;;;;5061137;28;20474;-71
2021/05/08 00:16:13;;;;;;;5.20;3.10;;;8.20;93.10;;;;;;5065838;28;20220;-71
2021/05/08 00:18:39;;;;;;;3.23;2.90;;;8.20;93.20;;;;;;5036645;28;20242;-71
2021/05/08 00:21:05;;;;;;;4.10;3.00;;;8.20;93.10;;;;;;5054238;28;20273;-70
2021/05/08 00:23:30;;;;;;;3.83;2.97;;;8.20;93.20;;;;;;5031272;28;20202;-71
2021/05/08 00:25:56;;;;;;;3.17;2.87;;;8.10;93.10;;;;;;5069550;28;20829;-71
2021/05/08 00:28:22;;;;;;;5.50;3.40;;;8.10;93.20;;;;;;5033838;28;20228;-71
2021/05/08 00:30:48;;;;;;;3.77;2.73;;;8.10;93.20;;;;;;5069570;28;20230;-72
2021/05/08 00:33:13;;;;;;;8.07;3.40;;;8.10;93.10;;;;;;5052881;28;20223;-71
2021/05/08 00:35:39;;;;;;;7.67;3.43;;;8.10;93.20;;;;;;5016537;28;20216;-70
2021/05/08 00:38:05;;;;;;;3.93;3.27;;;8.00;93.40;;;;;;5049448;28;20212;-70
2021/05/08 00:40:30;;;;;;;10.23;3.20;;;8.00;93.30;;;;;;5053223;28;20582;-71
2021/05/08 00:42:56;;;;;;;3.70;3.00;;;7.90;93.30;;;;;;5060893;28;20207;-71
2021/05/08 00:45:22;;;;;;;5.83;3.10;;;7.90;93.40;;;;;;5053687;28;20219;-70
2021/05/08 00:47:49;;;;;;;5.37;3.50;;;7.90;93.30;;;;;;5069535;28;20223;-71
2021/05/08 00:50:18;;;;;;;10.27;4.37;;;7.90;93.40;;;;;;5060507;28;20233;-71
2021/05/08 00:52:44;;;;;;;3.87;2.70;;;7.90;93.50;;;;;;5066975;28;20456;-71
2021/05/08 00:55:11;;;;;;;3.23;2.80;;;7.90;93.50;;;;;;5056750;28;20456;-70
2021/05/08 00:57:38;;;;;;;2.90;2.63;;;7.90;93.50;;;;;;5051756;28;20999;-71
2021/05/08 01:00:07;;;;;;;3.20;2.70;;;7.80;93.40;;;;;;5038710;28;20902;-72
2021/05/08 01:02:35;;;;;;;7.33;2.80;;;7.80;93.50;;;;;;5036262;28;20456;-72
2021/05/08 01:05:01;;;;;;;4.13;2.70;;;7.80;93.40;;;;;;5073246;28;20457;-70
2021/05/08 01:07:28;;;;;;;6.07;3.13;;;7.80;93.50;;;;;;5073186;28;20444;-71
2021/05/08 01:09:53;;;;;;;3.53;3.20;;;7.70;93.50;;;;;;5072499;28;20498;-71
2021/05/08 01:12:20;;;;;;;4.37;3.27;;;7.70;93.50;;;;;;5097644;28;20448;-71
2021/05/08 01:14:46;;;;;;;3.73;3.03;;;7.70;93.50;;;;;;5028261;28;20731;-71
2021/05/08 01:17:12;;;;;;;4.40;3.13;;;7.60;93.50;;;;;;5037861;28;20544;-71
2021/05/08 01:23:04;;;;;;;2.70;2.50;;;7.60;93.60;;;;;;5049477;28;20448;-68
2021/05/08 01:25:30;;;;;;;3.60;3.30;;;7.60;93.50;;;;;;5035503;28;20458;-69
2021/05/08 01:27:59;;;;;;;3.00;2.70;;;7.60;93.60;;;;;;5052125;28;20218;-68
2021/05/08 01:30:44;;;;;;;4.60;2.93;;;7.50;93.70;;;;;;5028078;28;20452;-69
2021/05/08 01:33:14;;;;;;;4.47;2.93;;;7.40;93.60;;;;;;5036596;28;20532;-68
2021/05/08 01:35:41;;;;;;;5.33;3.37;;;7.40;93.80;;;;;;5059704;28;20815;-69
2021/05/08 01:38:08;;;;;;;3.83;3.43;;;7.30;93.70;;;;;;5052522;28;20507;-70
2021/05/08 01:40:36;;;;;;;4.10;3.10;;;7.30;93.70;;;;;;5035923;28;20453;-70
2021/05/08 01:43:06;;;;;;;3.60;2.40;;;7.20;93.80;;;;;;5035741;28;20802;-69
2021/05/08 01:45:32;;;;;;;4.43;3.20;;;7.20;94.00;;;;;;5043770;28;20525;-68
2021/05/08 01:48:04;;;;;;;8.20;3.80;;;7.20;93.90;;;;;;5085822;28;20455;-68
2021/05/08 01:50:31;;;;;;;4.23;3.30;;;7.00;94.00;;;;;;5072687;28;20828;-69
2021/05/08 01:52:57;;;;;;;8.23;3.73;;;7.00;94.10;;;;;;5034900;28;20470;-70
2021/05/08 01:55:26;;;;;;;3.60;2.83;;;7.00;94.10;;;;;;5049049;28;20466;-69
2021/05/08 01:57:55;;;;;;;5.50;3.37;;;7.00;94.10;;;;;;5048651;28;20868;-70
2021/05/08 02:00:31;;;;;;;4.77;3.73;;;6.90;94.00;;;;;;5048467;28;20454;-68
2021/05/08 02:02:58;;;;;;;3.50;2.77;;;6.80;94.30;;;;;;5069954;28;20452;-68
2021/05/08 02:05:33;;;;;;;4.30;3.90;;;6.80;94.30;;;;;;5057035;28;20453;-68
2021/05/08 02:08:06;;;;;;;4.17;3.40;;;6.90;94.30;;;;;;5087466;28;20450;-68
2021/05/08 02:10:33;;;;;;;4.40;3.80;;;6.90;94.20;;;;;;5032031;28;20457;-68
2021/05/08 02:13:01;;;;;;;4.93;3.50;;;6.90;94.30;;;;;;5031988;28;20446;-68
2021/05/08 02:15:27;;;;;;;4.87;3.90;;;6.90;94.20;;;;;;5057351;28;20471;-68
2021/05/08 02:17:53;;;;;;;5.80;4.00;;;6.80;94.30;;;;;;5069299;28;20536;-68
2021/05/08 02:20:26;;;;;;;3.47;3.17;;;6.90;94.30;;;;;;5048469;28;20220;-69
2021/05/08 02:22:56;;;;;;;4.07;3.37;;;6.90;94.20;;;;;;5047246;28;20560;-69
2021/05/08 02:25:23;;;;;;;5.37;3.60;;;6.90;94.20;;;;;;5023959;28;20845;-68
2021/05/08 02:27:49;;;;;;;4.80;3.10;;;6.90;94.20;;;;;;5025032;28;21093;-70
2021/05/08 02:30:19;;;;;;;3.97;2.60;;;6.80;94.10;;;;;;5084980;28;20472;-68
2021/05/08 02:32:45;;;;;;;3.50;2.77;;;6.90;94.20;;;;;;5017095;28;20461;-70
2021/05/08 02:35:13;;;;;;;3.40;3.03;;;6.90;94.10;;;;;;5036615;28;20446;-69
2021/05/08 02:37:39;;;;;;;3.40;3.00;;;6.90;94.00;;;;;;5039211;28;20486;-68
2021/05/08 02:40:11;;;;;;;3.87;3.00;;;6.90;94.00;;;;;;5039184;28;20445;-69
2021/05/08 02:42:38;;;;;;;4.47;3.37;;;6.90;94.00;;;;;;5037354;28;20465;-69
2021/05/08 02:45:07;;;;;;;4.30;3.37;;;6.90;94.00;;;;;;5032973;28;20464;-68
2021/05/08 02:47:34;;;;;;;4.83;3.47;;;6.80;94.10;;;;;;5022138;28;20540;-68
2021/05/08 02:49:59;;;;;;;4.90;3.00;;;6.80;94.10;;;;;;5022277;28;20452;-69
2021/05/08 02:52:25;;;;;;;6.83;3.90;;;6.80;94.00;;;;;;5019350;28;20463;-68
2021/05/08 02:54:51;;;;;;;3.57;2.73;;;6.80;94.10;;;;;;5068714;28;20220;-68
2021/05/08 02:57:17;;;;;;;3.80;3.03;;;6.70;94.10;;;;;;5019588;28;20785;-68
2021/05/08 02:59:43;;;;;;;4.40;3.37;;;6.70;94.00;;;;;;5021100;28;20219;-68
2021/05/08 03:02:09;;;;;;;5.17;3.17;;;6.70;94.00;;;;;;5062298;28;20461;-68
2021/05/08 03:04:35;;;;;;;4.13;2.90;;;6.70;94.00;;;;;;5017938;28;20677;-68
2021/05/08 03:07:02;;;;;;;5.03;3.57;;;6.70;94.00;;;;;;5031247;28;20470;-69
2021/05/08 03:09:29;;;;;;;4.40;2.90;;;6.70;94.00;;;;;;5014716;28;20458;-69
2021/05/08 03:11:55;;;;;;;3.60;2.93;;;6.70;94.00;;;;;;5052884;28;20446;-69
2021/05/08 03:14:22;;;;;;;3.97;2.67;;;6.70;94.00;;;;;;5052149;28;20450;-69
2021/05/08 03:16:47;;;;;;;4.70;3.40;;;6.70;94.00;;;;;;5076785;28;20821;-69
2021/05/08 03:19:13;;;;;;;3.50;2.73;;;6.60;93.90;;;;;;5056965;28;20450;-68
2021/05/08 03:21:39;;;;;;;6.20;3.50;;;6.60;94.10;;;;;;5077742;28;20223;-68
2021/05/08 03:24:06;;;;;;;3.77;3.17;;;6.60;94.10;;;;;;5022192;28;20215;-68
2021/05/08 03:26:32;;;;;;;4.63;3.17;;;6.50;94.10;;;;;;5038437;28;20298;-68
2021/05/08 03:28:58;;;;;;;3.97;3.03;;;6.50;94.00;;;;;;5045386;28;20560;-69
2021/05/08 03:31:25;;;;;;;3.87;3.10;;;6.40;94.10;;;;;;5066613;28;20804;-68
2021/05/08 03:33:51;;;;;;;3.13;2.80;;;6.40;94.00;;;;;;5078295;28;20445;-68
2021/05/08 03:36:17;;;;;;;4.07;2.90;;;6.40;94.00;;;;;;5071921;28;20452;-70
2021/05/08 03:38:43;;;;;;;4.37;3.67;;;6.40;94.00;;;;;;5054337;28;20513;-68
2021/05/08 03:41:09;;;;;;;4.40;3.00;;;6.40;94.00;;;;;;5079352;28;20445;-68
2021/05/08 03:43:35;;;;;;;3.20;2.60;;;6.40;94.00;;;;;;5022796;28;20718;-68
2021/05/08 03:46:01;;;;;;;3.40;3.10;;;6.40;94.00;;;;;;5037131;28;20695;-70
2021/05/08 03:48:27;;;;;;;4.23;3.47;;;6.40;94.00;;;;;;5037211;28;20226;-69
2021/05/08 03:50:52;;;;;;;3.63;3.30;;;6.40;93.90;;;;;;5053501;28;20686;-67
2021/05/08 03:53:22;;;;;;;3.90;2.90;;;6.30;93.90;;;;;;5062697;28;20518;-68
2021/05/08 03:55:53;;;;;;;22.10;11.07;;;6.30;93.90;;;;;;5037920;28;20313;-68
2021/05/08 03:58:22;;;;;;;18.53;9.10;;;6.30;94.00;;;;;;5055166;28;20469;-68
2021/05/08 04:00:48;;;;;;;10.23;6.33;;;6.30;94.00;;;;;;5054600;28;20457;-70
2021/05/08 04:03:14;;;;;;;6.90;4.70;;;6.30;94.00;;;;;;5036988;28;20462;-68
2021/05/08 04:05:40;;;;;;;6.97;4.60;;;6.30;94.00;;;;;;5061968;28;20489;-68
2021/05/08 04:08:05;;;;;;;7.83;3.87;;;6.20;93.90;;;;;;5054552;28;20245;-70
2021/05/08 04:10:31;;;;;;;5.23;3.70;;;6.20;94.00;;;;;;5037670;28;20721;-67
2021/05/08 04:12:57;;;;;;;4.47;3.57;;;6.10;94.00;;;;;;5044368;28;20210;-67
2021/05/08 04:15:23;;;;;;;7.10;4.17;;;6.10;94.00;;;;;;5041094;28;20809;-68
2021/05/08 04:17:48;;;;;;;4.40;3.50;;;6.10;94.00;;;;;;5073811;28;20219;-68
2021/05/08 04:20:14;;;;;;;3.60;3.17;;;6.20;94.10;;;;;;5073919;28;20694;-68
2021/05/08 04:22:40;;;;;;;4.20;3.10;;;6.10;94.00;;;;;;5073881;28;20225;-68
2021/05/08 04:25:06;;;;;;;5.40;3.60;;;6.10;94.30;;;;;;5063310;28;20467;-69
2021/05/08 04:27:32;;;;;;;5.10;3.57;;;5.90;94.50;;;;;;5064317;28;21072;-68
2021/05/08 04:29:58;;;;;;;5.30;3.70;;;5.90;94.90;;;;;;5036351;28;20461;-68
2021/05/08 04:32:24;;;;;;;6.17;3.87;;;6.00;94.40;;;;;;5053988;28;20215;-69
2021/05/08 04:34:50;;;;;;;4.27;3.47;;;6.00;94.30;;;;;;5035913;28;20203;-69
2021/05/08 04:37:15;;;;;;;5.50;3.77;;;6.10;94.40;;;;;;5055177;28;20500;-70
2021/05/08 04:39:41;;;;;;;4.30;3.83;;;6.00;94.40;;;;;;5035850;28;20951;-69
2021/05/08 04:42:07;;;;;;;4.90;3.60;;;6.00;94.50;;;;;;5062394;28;20584;-69
2021/05/08 04:44:33;;;;;;;8.83;3.47;;;6.00;94.40;;;;;;5038489;28;20227;-68
2021/05/08 04:46:59;;;;;;;4.30;3.40;;;6.10;94.40;;;;;;5074351;28;20215;-70
2021/05/08 04:49:25;;;;;;;3.77;3.07;;;6.10;94.50;;;;;;5064153;28;20223;-69
2021/05/08 04:51:54;;;;;;;4.23;3.50;;;6.00;94.80;;;;;;5052843;28;20463;-70
2021/05/08 04:54:20;;;;;;;5.03;3.80;;;6.00;94.70;;;;;;5037231;28;20454;-69
2021/05/08 04:56:46;;;;;;;4.20;3.10;;;6.10;94.60;;;;;;5036461;28;20470;-69
2021/05/08 04:59:11;;;;;;;4.50;3.47;;;6.10;94.80;;;;;;5035775;28;20724;-69
2021/05/08 05:01:37;;;;;;;3.30;3.00;;;6.10;95.10;;;;;;5048409;28;20267;-68
2021/05/08 05:04:03;;;;;;;4.50;3.60;;;6.00;95.40;;;;;;5039505;28;20214;-68
2021/05/08 05:06:28;;;;;;;3.70;3.23;;;6.10;95.10;;;;;;5032834;28;20210;-68
2021/05/08 05:08:54;;;;;;;4.13;3.20;;;6.10;94.90;;;;;;5032854;28;20671;-68
2021/05/08 05:11:21;;;;;;;3.80;3.00;;;6.10;94.90;;;;;;5066421;28;20250;-69
2021/05/08 05:13:47;;;;;;;4.63;3.73;;;6.10;95.20;;;;;;5066086;28;20265;-68
2021/05/08 05:16:13;;;;;;;3.93;3.57;;;6.10;95.10;;;;;;5075331;28;20972;-68
2021/05/08 05:18:39;;;;;;;4.50;3.70;;;6.10;95.40;;;;;;5026271;28;20485;-68
2021/05/08 05:21:05;;;;;;;4.97;3.67;;;6.20;95.50;;;;;;5039322;28;20226;-68
2021/05/08 05:23:31;;;;;;;3.83;3.33;;;6.20;95.50;;;;;;5043874;28;20226;-69
2021/05/08 05:25:56;;;;;;;6.13;4.00;;;6.20;95.40;;;;;;5052417;28;20276;-69
2021/05/08 05:28:24;;;;;;;5.03;4.00;;;6.30;95.80;;;;;;5036398;28;20461;-68
2021/05/08 05:30:51;;;;;;;6.27;4.17;;;6.30;95.70;;;;;;5036091;28;20222;-68
2021/05/08 05:33:17;;;;;;;7.40;4.30;;;6.30;95.80;;;;;;5036150;28;20480;-70
2021/05/08 05:35:44;;;;;;;5.30;4.30;;;6.30;95.90;;;;;;5036132;28;20453;-70
2021/05/08 05:38:09;;;;;;;5.00;4.13;;;6.40;96.00;;;;;;5052623;28;20470;-68
2021/05/08 05:40:35;;;;;;;6.50;4.17;;;6.40;96.20;;;;;;5026971;28;20450;-69
2021/05/08 05:43:01;;;;;;;6.17;4.13;;;6.40;96.10;;;;;;5068836;28;20222;-70
2021/05/08 05:45:27;;;;;;;4.00;3.40;;;6.40;96.20;;;;;;5056238;28;20234;-70
2021/05/08 05:47:57;;;;;;;2.97;2.67;;;6.50;96.30;;;;;;5038971;28;20222;-68
2021/05/08 05:50:24;;;;;;;3.77;3.30;;;6.50;96.20;;;;;;5055723;28;20223;-68
2021/05/08 05:52:50;;;;;;;5.33;3.80;;;6.50;96.30;;;;;;5062067;28;20463;-69
2021/05/08 05:55:16;;;;;;;4.20;3.30;;;6.60;96.60;;;;;;5079765;28;20457;-72
2021/05/08 05:57:41;;;;;;;5.40;3.57;;;6.60;96.70;;;;;;5071490;28;20517;-69
2021/05/08 06:00:08;;;;;;;4.13;3.80;;;6.60;96.60;;;;;;5054578;28;20472;-68
2021/05/08 06:02:34;;;;;;;4.47;3.30;;;6.70;96.70;;;;;;5055601;28;20218;-68
2021/05/08 06:05:00;;;;;;;3.73;3.43;;;6.70;96.60;;;;;;5065246;28;20457;-71
2021/05/08 06:07:25;;;;;;;4.10;3.70;;;6.70;96.50;;;;;;5064000;28;20449;-68
2021/05/08 06:09:51;;;;;;;4.37;3.53;;;6.70;96.80;;;;;;5039410;28;20219;-68
2021/05/08 06:12:16;;;;;;;4.10;3.60;;;6.80;97.00;;;;;;5018970;28;20242;-68
2021/05/08 06:14:42;;;;;;;3.83;3.30;;;6.80;97.20;;;;;;5021103;28;20306;-70
2021/05/08 06:17:08;;;;;;;4.73;3.70;;;6.90;97.40;;;;;;5019936;28;20231;-68
2021/05/08 06:19:34;;;;;;;7.63;3.90;;;7.00;97.80;;;;;;5068647;28;20272;-68
2021/05/08 06:21:59;;;;;;;4.53;3.67;;;7.00;97.60;;;;;;5069743;28;20695;-68
2021/05/08 06:24:25;;;;;;;6.37;3.90;;;7.10;97.80;;;;;;5052205;28;20682;-68
2021/05/08 06:26:50;;;;;;;5.23;4.17;;;7.10;98.10;;;;;;5041324;28;20678;-71
2021/05/08 06:29:16;;;;;;;4.40;3.20;;;7.20;98.20;;;;;;5072206;28;20267;-68
2021/05/08 06:31:42;;;;;;;5.20;3.77;;;7.30;98.30;;;;;;5038093;28;20297;-69
2021/05/08 06:34:08;;;;;;;4.67;3.70;;;7.30;98.30;;;;;;5072507;28;20746;-68
2021/05/08 06:36:33;;;;;;;5.20;4.23;;;7.40;98.40;;;;;;5039045;28;20218;-69
2021/05/08 06:38:59;;;;;;;4.90;3.70;;;7.40;98.30;;;;;;5030664;28;20262;-71
2021/05/08 06:41:24;;;;;;;3.87;3.33;;;7.50;98.90;;;;;;5053385;28;20211;-68
2021/05/08 06:43:50;;;;;;;5.43;2.93;;;7.60;98.90;;;;;;5059189;28;20203;-68
2021/05/08 06:46:16;;;;;;;4.80;4.00;;;7.70;99.10;;;;;;5054034;28;20305;-68
2021/05/08 06:48:42;;;;;;;3.53;3.27;;;7.70;99.20;;;;;;5038232;28;20954;-69
2021/05/08 06:51:08;;;;;;;6.20;4.63;;;7.80;99.10;;;;;;5036580;28;20235;-70
2021/05/08 06:53:37;;;;;;;5.20;3.60;;;7.90;99.30;;;;;;5039551;28;20218;-69
2021/05/08 06:56:03;;;;;;;4.30;3.67;;;8.00;99.50;;;;;;5046574;28;20524;-68
2021/05/08 06:58:29;;;;;;;4.40;3.53;;;8.10;99.80;;;;;;5062330;28;20509;-69
2021/05/08 07:00:55;;;;;;;4.73;3.60;;;8.20;99.90;;;;;;5046730;28;20453;-68
2021/05/08 07:03:20;;;;;;;3.80;3.40;;;8.20;99.70;;;;;;5068796;28;20222;-68
2021/05/08 07:05:46;;;;;;;4.90;4.27;;;8.30;99.70;;;;;;5060495;28;20249;-70
2021/05/08 07:08:12;;;;;;;4.03;3.50;;;8.40;99.90;;;;;;5058390;28;20233;-68
2021/05/08 07:10:50;;;;;;;4.43;3.83;;;8.40;99.90;;;;;;5051859;28;20229;-68
2021/05/08 07:13:15;;;;;;;7.60;4.33;;;8.60;99.90;;;;;;5061967;28;20964;-69
2021/05/08 07:15:41;;;;;;;5.40;3.80;;;8.60;99.90;;;;;;5033615;28;20465;-68
2021/05/08 07:18:08;;;;;;;5.20;3.50;;;8.70;99.90;;;;;;5066829;28;20226;-69
2021/05/08 07:20:36;;;;;;;5.43;3.33;;;8.70;99.80;;;;;;5015082;28;20220;-68
2021/05/08 07:23:02;;;;;;;6.87;4.10;;;8.70;99.90;;;;;;5049546;28;20446;-69
2021/05/08 07:25:28;;;;;;;6.13;3.80;;;8.80;99.90;;;;;;5035240;28;20470;-68
2021/05/08 07:28:07;;;;;;;4.37;3.93;;;8.80;99.90;;;;;;5062782;28;20449;-68
2021/05/08 07:30:32;;;;;;;4.03;3.60;;;9.00;99.90;;;;;;5051815;28;20458;-68
2021/05/08 07:32:58;;;;;;;3.70;3.40;;;9.10;99.90;;;;;;5051048;28;20462;-68
2021/05/08 07:35:23;;;;;;;5.00;3.50;;;9.10;99.90;;;;;;5035120;28;20224;-70
2021/05/08 07:37:50;;;;;;;4.17;3.70;;;9.20;99.90;;;;;;5051271;28;20223;-70
2021/05/08 07:40:15;;;;;;;4.47;3.80;;;9.30;99.90;;;;;;5056082;28;20225;-69
2021/05/08 07:42:49;;;;;;;9.10;4.40;;;9.30;99.90;;;;;;5028697;28;20544;-68
2021/05/08 07:45:15;;;;;;;4.40;3.47;;;9.40;99.90;;;;;;5040840;28;20345;-68
2021/05/08 07:47:41;;;;;;;3.80;3.50;;;9.50;99.90;;;;;;5084757;28;20472;-68
2021/05/08 07:50:08;;;;;;;5.50;3.97;;;9.60;99.90;;;;;;5052062;28;20879;-68
2021/05/08 07:52:34;;;;;;;6.00;4.57;;;9.70;99.90;;;;;;5067093;28;20449;-69
2021/05/08 07:55:00;;;;;;;6.70;3.93;;;9.80;99.90;;;;;;5063751;28;21010;-69
2021/05/08 07:57:26;;;;;;;4.90;3.53;;;9.90;99.90;;;;;;5049953;28;20453;-69
2021/05/08 07:59:51;;;;;;;4.40;3.87;;;10.00;99.40;;;;;;5057546;28;20727;-68
2021/05/08 08:02:17;;;;;;;4.70;4.00;;;10.00;99.30;;;;;;5064343;28;20234;-68
2021/05/08 08:05:01;;;;;;;4.40;4.00;;;10.10;99.70;;;;;;5059368;28;20246;-68
2021/05/08 08:07:34;;;;;;;4.93;4.10;;;10.20;99.70;;;;;;5030153;28;20230;-69
2021/05/08 08:10:00;;;;;;;4.70;4.20;;;10.40;99.90;;;;;;5041379;28;20476;-68
2021/05/08 08:12:26;;;;;;;5.97;4.70;;;10.40;99.70;;;;;;5054614;28;20464;-68
2021/05/08 08:14:52;;;;;;;5.23;4.40;;;10.50;99.80;;;;;;5056468;28;20453;-68
2021/05/08 08:17:18;;;;;;;4.60;3.97;;;10.60;99.70;;;;;;5069345;28;20698;-68
2021/05/08 08:19:47;;;;;;;4.17;3.77;;;10.60;99.50;;;;;;5052650;28;20222;-68
2021/05/08 08:22:14;;;;;;;5.00;4.50;;;10.60;99.50;;;;;;5063194;28;20537;-69
2021/05/08 08:24:40;;;;;;;5.93;4.50;;;10.60;99.20;;;;;;5090703;28;20476;-68
2021/05/08 08:27:06;;;;;;;5.90;4.73;;;10.70;99.40;;;;;;5078142;28;20457;-69
2021/05/08 08:29:32;;;;;;;4.90;4.40;;;10.70;99.20;;;;;;5054146;28;20223;-68
2021/05/08 08:31:57;;;;;;;6.47;4.47;;;10.80;99.20;;;;;;5037007;28;20806;-69
2021/05/08 08:34:23;;;;;;;6.10;5.27;;;10.80;99.00;;;;;;5022905;28;20238;-72
2021/05/08 08:36:49;;;;;;;5.30;4.20;;;10.90;99.00;;;;;;5065425;28;20569;-68
2021/05/08 08:39:14;;;;;;;6.43;4.33;;;11.00;99.20;;;;;;5073723;28;20227;-68
2021/05/08 08:41:41;;;;;;;7.07;4.37;;;11.00;99.10;;;;;;5056683;28;20214;-68
2021/05/08 08:44:09;;;;;;;5.47;4.67;;;11.10;99.20;;;;;;5031563;28;20208;-68
2021/05/08 08:46:46;;;;;;;8.83;4.80;;;11.20;99.20;;;;;;5065674;28;20463;-68
2021/05/08 08:49:13;;;;;;;10.20;4.90;;;11.20;99.00;;;;;;5074547;28;20490;-70
2021/05/08 08:51:40;;;;;;;6.10;5.30;;;11.20;98.90;;;;;;5067180;28;20487;-68
2021/05/08 08:54:06;;;;;;;5.60;4.43;;;11.30;99.00;;;;;;5066492;28;20449;-68
2021/05/08 08:56:40;;;;;;;8.30;5.70;;;11.30;98.90;;;;;;5073560;28;20449;-68
2021/05/08 08:59:30;;;;;;;7.80;4.90;;;11.40;99.10;;;;;;5016744;28;20455;-68
2021/05/08 09:01:56;;;;;;;7.10;4.57;;;11.50;99.20;;;;;;5036386;28;20448;-68
2021/05/08 09:04:22;;;;;;;7.00;5.50;;;11.60;99.20;;;;;;5021326;28;20476;-69
2021/05/08 09:06:49;;;;;;;6.80;5.23;;;11.60;99.10;;;;;;5059572;28;20686;-68
2021/05/08 09:10:05;;;;;;;7.47;4.90;;;11.60;99.10;;;;;;5066624;28;20892;-69
2021/05/08 09:12:44;;;;;;;5.30;4.60;;;11.70;99.00;;;;;;5053070;28;20520;-69
2021/05/08 09:15:10;;;;;;;5.70;4.57;;;11.80;99.00;;;;;;5053272;28;20449;-68
2021/05/08 09:17:45;;;;;;;6.40;5.07;;;11.80;98.80;;;;;;5081443;28;21030;-68
2021/05/08 09:20:12;;;;;;;5.07;4.57;;;11.80;98.90;;;;;;5052483;28;20464;-70
2021/05/08 09:22:39;;;;;;;4.87;4.37;;;11.90;99.20;;;;;;5052917;28;20449;-69
2021/05/08 09:25:16;;;;;;;4.13;3.73;;;12.00;99.00;;;;;;5036330;28;20500;-69
2021/05/08 09:27:44;;;;;;;6.33;4.67;;;12.10;99.00;;;;;;5037796;28;20471;-69
2021/05/08 09:30:25;;;;;;;6.23;5.40;;;12.10;99.30;;;;;;5005151;28;20463;-69
2021/05/08 09:32:55;;;;;;;7.17;5.27;;;12.20;99.40;;;;;;5006476;28;20473;-70
2021/05/08 09:35:24;;;;;;;7.07;4.90;;;12.20;99.10;;;;;;5038674;28;20455;-69
2021/05/08 09:38:04;;;;;;;6.33;4.63;;;12.30;99.20;;;;;;5032583;28;20458;-69
2021/05/08 09:40:30;;;;;;;4.60;4.10;;;12.40;99.10;;;;;;5016113;28;20792;-70
2021/05/08 09:42:57;;;;;;;4.87;4.30;;;12.50;99.30;;;;;;5034496;28;20461;-69
2021/05/08 09:45:24;;;;;;;6.23;4.70;;;12.60;99.30;;;;;;5004515;28;20229;-69
2021/05/08 09:47:51;;;;;;;5.20;4.57;;;12.70;99.20;;;;;;5042886;28;20536;-70
2021/05/08 09:50:24;;;;;;;6.50;5.00;;;12.80;98.80;;;;;;5051936;28;20468;-70
2021/05/08 09:53:09;;;;;;;5.77;4.40;;;13.00;98.70;;;;;;5031450;28;20455;-71
2021/05/08 09:55:35;;;;;;;4.80;4.07;;;13.10;98.40;;;;;;5049186;28;20442;-69
2021/05/08 09:58:08;;;;;;;4.67;4.17;;;13.20;98.40;;;;;;5065401;28;20465;-70
2021/05/08 10:00:37;;;;;;;6.40;4.73;;;13.30;98.30;;;;;;5043372;28;20466;-69
2021/05/08 10:03:13;;;;;;;6.03;4.70;;;13.30;98.30;;;;;;5065654;28;20453;-69
2021/05/08 10:06:00;;;;;;;5.20;3.93;;;13.40;98.60;;;;;;5051697;28;20461;-69
2021/05/08 10:08:26;;;;;;;7.50;5.20;;;13.60;98.10;;;;;;5025122;28;20512;-69
2021/05/08 10:10:52;;;;;;;11.83;5.23;;;13.60;97.50;;;;;;5063003;28;20972;-69
2021/05/08 10:13:18;;;;;;;5.57;4.50;;;13.70;98.20;;;;;;5055761;28;20229;-69
2021/05/08 10:15:45;;;;;;;4.97;4.33;;;13.90;97.00;;;;;;5065317;28;20461;-69
2021/05/08 10:18:12;;;;;;;6.17;4.17;;;13.90;97.20;;;;;;5035026;28;20462;-69
2021/05/08 10:20:42;;;;;;;4.70;4.20;;;14.00;98.20;;;;;;5051871;28;20454;-69
2021/05/08 10:23:10;;;;;;;5.20;4.30;;;14.20;97.00;;;;;;5041305;28;20484;-69
2021/05/08 10:25:40;;;;;;;4.87;4.37;;;14.30;96.20;;;;;;5044532;28;21048;-70
2021/05/08 10:28:07;;;;;;;8.33;5.20;;;14.40;96.80;;;;;;5030536;28;20458;-69
2021/05/08 10:30:40;;;;;;;10.07;5.27;;;14.40;97.20;;;;;;5039595;28;20553;-69
2021/05/08 10:33:12;;;;;;;5.83;5.00;;;14.40;97.50;;;;;;5064367;28;20540;-69
2021/05/08 10:35:38;;;;;;;10.10;4.60;;;14.40;97.30;;;;;;5046102;28;20540;-69
2021/05/08 10:38:24;;;;;;;4.77;4.37;;;14.60;97.40;;;;;;5051357;28;21716;-70
2021/05/08 10:40:57;;;;;;;4.10;3.70;;;14.70;96.80;;;;;;5016201;28;20721;-71
2021/05/08 10:43:45;;;;;;;4.80;3.67;;;15.00;96.00;;;;;;5036634;28;20972;-69
2021/05/08 10:46:13;;;;;;;3.93;3.00;;;15.20;96.00;;;;;;5056042;28;20474;-69
2021/05/08 10:48:39;;;;;;;3.83;3.47;;;15.40;96.30;;;;;;5031184;28;20477;-71
2021/05/08 10:51:05;;;;;;;4.20;3.70;;;15.40;96.70;;;;;;5040040;28;20445;-69
2021/05/08 10:53:44;;;;;;;5.73;3.73;;;15.50;96.20;;;;;;5046806;28;20465;-69
2021/05/08 10:56:29;;;;;;;9.27;4.17;;;15.60;96.40;;;;;;5041517;28;20465;-72
2021/05/08 10:59:08;;;;;;;4.20;3.47;;;15.80;96.30;;;;;;5085595;28;20837;-69
2021/05/08 11:01:44;;;;;;;4.63;4.07;;;15.90;96.10;;;;;;5074290;28;20490;-69
2021/05/08 11:04:11;;;;;;;4.17;3.77;;;16.00;96.00;;;;;;5070555;28;21013;-69
2021/05/08 11:06:37;;;;;;;8.03;4.40;;;16.20;94.40;;;;;;5055303;28;20473;-70
2021/05/08 11:09:04;;;;;;;4.50;4.00;;;16.30;93.50;;;;;;5054571;28;20445;-70
2021/05/08 11:11:51;;;;;;;5.10;3.93;;;16.30;94.20;;;;;;5069931;28;20515;-69
2021/05/08 11:14:53;;;;;;;3.10;2.80;;;16.40;92.50;;;;;;5080661;28;20453;-70
2021/05/08 11:17:19;;;;;;;2.67;2.47;;;16.60;92.10;;;;;;5044957;28;20452;-69
2021/05/08 11:19:45;;;;;;;4.27;2.77;;;16.70;92.50;;;;;;5051113;28;20452;-70
2021/05/08 11:22:14;;;;;;;3.50;2.30;;;16.80;93.20;;;;;;5052626;28;20701;-70
2021/05/08 11:24:41;;;;;;;5.63;2.67;;;16.90;92.80;;;;;;5037246;28;21057;-70
2021/05/08 11:27:23;;;;;;;4.07;2.80;;;17.00;92.30;;;;;;5045526;28;20457;-69
2021/05/08 11:29:49;;;;;;;2.80;2.60;;;17.00;92.60;;;;;;5068564;28;20448;-69
2021/05/08 11:32:14;;;;;;;3.00;2.60;;;17.00;91.20;;;;;;5048376;28;20871;-70
2021/05/08 11:34:44;;;;;;;3.10;2.13;;;17.00;91.00;;;;;;5059051;28;20215;-70
2021/05/08 11:37:12;;;;;;;3.60;2.57;;;17.00;90.00;;;;;;5038655;28;20239;-70
2021/05/08 11:39:40;;;;;;;2.93;2.63;;;17.00;90.30;;;;;;5054226;28;20534;-69
2021/05/08 11:42:16;;;;;;;3.37;2.03;;;17.00;90.60;;;;;;5021122;28;20460;-70
2021/05/08 11:44:44;;;;;;;2.70;2.50;;;16.90;91.80;;;;;;5064598;28;20826;-70
2021/05/08 11:47:30;;;;;;;3.20;2.40;;;17.00;91.80;;;;;;5070347;28;20465;-69
2021/05/08 11:49:59;;;;;;;2.00;1.90;;;17.10;90.10;;;;;;5043152;28;20458;-69
2021/05/08 11:52:42;;;;;;;3.27;2.80;;;17.10;89.90;;;;;;5054942;28;20453;-70
2021/05/08 11:55:32;;;;;;;2.63;2.33;;;17.10;88.40;;;;;;5020433;28;20450;-69
2021/05/08 11:57:59;;;;;;;2.67;2.47;;;17.10;89.80;;;;;;5052690;28;20830;-71
2021/05/08 12:00:27;;;;;;;2.37;2.17;;;17.20;91.00;;;;;;5068164;28;20457;-69
2021/05/08 12:03:13;;;;;;;3.40;2.43;;;17.30;90.20;;;;;;5048631;28;20454;-69
2021/05/08 12:05:40;;;;;;;2.67;2.23;;;17.40;90.40;;;;;;5054290;28;20501;-70
2021/05/08 12:08:07;;;;;;;2.47;2.27;;;17.40;89.80;;;;;;5069664;28;20450;-69
2021/05/08 12:10:35;;;;;;;2.70;2.40;;;17.40;87.80;;;;;;5049561;28;20478;-70
2021/05/08 12:13:01;;;;;;;2.83;2.60;;;17.40;88.20;;;;;;5034094;28;20446;-69
2021/05/08 12:15:31;;;;;;;2.77;2.47;;;17.40;88.10;;;;;;5068756;28;20541;-69
2021/05/08 12:17:59;;;;;;;2.50;2.27;;;17.50;88.60;;;;;;5066363;28;20231;-69
2021/05/08 12:20:35;;;;;;;5.30;2.17;;;17.50;87.80;;;;;;5071816;28;20539;-70
2021/05/08 12:23:04;;;;;;;2.37;2.17;;;17.50;87.60;;;;;;5071719;28;20959;-69
2021/05/08 12:25:30;;;;;;;3.03;2.73;;;17.60;86.70;;;;;;5071801;28;20469;-70
2021/05/08 12:28:19;;;;;;;3.07;2.50;;;17.60;86.60;;;;;;5017003;28;20523;-68
2021/05/08 12:30:51;;;;;;;2.40;2.20;;;17.60;85.20;;;;;;5045253;28;20882;-67
2021/05/08 12:33:19;;;;;;;4.17;3.83;;;17.70;85.60;;;;;;5066733;28;20460;-68
2021/05/08 12:35:46;;;;;;;2.80;2.33;;;17.70;85.10;;;;;;5052574;28;20500;-68
2021/05/08 12:38:20;;;;;;;3.53;2.40;;;17.60;84.70;;;;;;5086183;28;20473;-68
2021/05/08 12:40:47;;;;;;;2.93;2.40;;;17.60;85.40;;;;;;5052100;28;20461;-68
2021/05/08 12:43:24;;;;;;;2.50;2.30;;;17.70;86.20;;;;;;5067142;28;20458;-70
2021/05/08 12:46:01;;;;;;;2.30;2.10;;;17.70;86.60;;;;;;5020063;28;20456;-68
2021/05/08 12:48:43;;;;;;;3.17;2.87;;;17.80;85.70;;;;;;5079875;28;20466;-68
2021/05/08 12:51:28;;;;;;;5.00;4.50;;;17.80;85.90;;;;;;5062014;28;20579;-68
2021/05/08 12:54:16;;;;;;;3.20;2.90;;;17.80;84.40;;;;;;5057062;28;20487;-69
2021/05/08 12:56:42;;;;;;;2.83;2.40;;;17.80;83.40;;;;;;5034281;28;20457;-68
2021/05/08 12:59:08;;;;;;;2.60;2.37;;;17.90;85.40;;;;;;5014006;28;20884;-69
2021/05/08 13:02:09;;;;;;;2.70;2.50;;;17.90;83.50;;;;;;5062046;28;20219;-68
2021/05/08 13:04:39;;;;;;;2.73;2.53;;;17.90;84.30;;;;;;5036203;28;20514;-69